Podhale (bahama Islands) — C6TX9 — position and weather

sailwx.info

Track history (hours):
 
Tides and Currents Weather Stations Pressure Air Temp Water Temp Dewpoint Dewpoint Depression Visibility Wind Speed Wind Dir Waves Ship Positions

Podhale (bahama Islands)

Last reported at 2016-May-11 11:27 UTC. Time now 2016-May-29 01:59 UTC.
Position N 48°53' W 005°48'.
Warning: this ship's position is 17 days out of date.

Length 190 m; beam 24 m.

Type: Cargo ship. MMSI: 311831000.

Date/timePositionNaut miles runAvg speedWind from/ knotsBaromVisibWave heightAir tempDewpointWater temp
2016-May-11 11:27N 48°53' W 005°48'8 7.8
2016-May-11 10:24N 48°57' W 005°38'9 6.9
2016-May-11 09:05N 49°02' W 005°27'3 6.2
2016-May-11 08:33N 49°04' W 005°22'6 5.8
2016-May-11 07:33N 49°07' W 005°15'5 4.5
2016-May-11 06:33N 49°09' W 005°09'8 7.3
2016-May-11 05:30N 49°13' W 004°58'4312.6
2016-May-11 02:05N 49°35' W 004°01'1013.3
2016-May-11 01:22N 49°40' W 003°49'1112.7
2016-May-11 00:30N 49°45' W 003°34'1111.6
2016-May-10 23:33N 49°51' W 003°19'1110.6
2016-May-10 22:34N 49°56' W 003°05'1010.0
2016-May-10 21:33N 50°00' W 002°51'9313.3
2016-May-10 14:33N 50°26' W 000°31'1212.2
2016-May-10 13:33N 50°28' W 000°12'1111.1
2016-May-10 12:33N 50°32' E 000°04'1010.0
2016-May-10 11:33N 50°35' E 000°19'12 9.9
2016-May-10 10:18N 50°39' E 000°37'2212.7
2016-May-10 08:34N 50°52' E 001°05'1414.1
2016-May-10 07:34N 51°01' E 001°23'1312.9
2016-May-10 06:33N 51°10' E 001°38'1111.1
2016-May-10 05:33N 51°18' E 001°50'1010.2
2016-May-10 04:33N 51°27' E 001°59'10 9.8
2016-May-10 03:33N 51°34' E 002°09'10 9.9
2016-May-10 02:31N 51°42' E 002°20'14411.8
2016-May-09 14:19N 53°52' E 004°01'1012.5
2016-May-09 13:32N 53°58' E 004°15'1211.9
2016-May-09 12:33N 54°07' E 004°29'1211.8
2016-May-09 11:33N 54°16' E 004°40'1211.5
2016-May-09 10:33N 54°26' E 004°51'9411.7
2016-May-09 02:29N 55°43' E 006°24'1211.9
2016-May-09 01:30N 55°53' E 006°37'16011.5
2016-May-08 11:33N 57°48' E 009°59'1212.0
2016-May-08 10:32N 57°48' E 010°22'1212.0
2016-May-08 09:34N 57°48' E 010°44'1211.5
2016-May-08 08:33N 57°41' E 011°00'1212.2
2016-May-08 07:33N 57°32' E 011°17'1111.4
2016-May-08 06:33N 57°23' E 011°29'1211.8
2016-May-08 05:33N 57°12' E 011°36'1211.9
2016-May-08 04:33N 57°00' E 011°44'1211.8
2016-May-08 03:33N 56°49' E 011°51'1110.9
2016-May-08 02:33N 56°39' E 011°47'1211.6
2016-May-08 01:33N 56°29' E 011°36'1211.9
2016-May-08 00:33N 56°18' E 011°25'1211.8
2016-May-07 23:33N 56°09' E 011°13'1212.0
2016-May-07 22:30N 55°58' E 011°01'1212.0
2016-May-07 21:33N 55°49' E 010°49'1212.4
2016-May-07 20:33N 55°37' E 010°48'1312.2
2016-May-07 19:31N 55°25' E 010°59'1111.1
2016-May-07 18:33N 55°15' E 011°02'1 0.5
2016-May-07 17:34N 55°14' E 011°03'0 0.0
2016-May-07 16:24N 55°14' E 011°03'0 0.0
2016-May-07 15:33N 55°14' E 011°03'0 0.0
2016-May-07 14:30N 55°14' E 011°03'0 0.0
2016-May-07 13:33N 55°14' E 011°03'0 0.0
2016-May-07 12:33N 55°14' E 011°03'0 0.0
2016-May-07 11:33N 55°14' E 011°03'2 2.2
2016-May-07 10:33N 55°17' E 011°02'7 7.0
2016-May-07 09:33N 55°10' E 011°00'1212.2
2016-May-07 08:34N 54°58' E 010°56'10 9.5
2016-May-07 07:33N 54°49' E 010°50'9 9.2
2016-May-07 06:34N 54°40' E 010°49'8 8.4
2016-May-07 05:34N 54°36' E 011°03'1211.7
2016-May-07 04:34N 54°33' E 011°22'1211.8
2016-May-07 03:33N 54°28' E 011°41'1211.9
2016-May-07 02:33N 54°27' E 012°01'9 9.0
2016-May-07 01:33N 54°32' E 012°14'1111.1
2016-May-07 00:33N 54°40' E 012°26'1211.6
2016-May-06 23:34N 54°46' E 012°43'1111.4
2016-May-06 22:33N 54°52' E 013°01'1111.4
2016-May-06 21:33N 54°55' E 013°19'1211.7
2016-May-06 20:34N 54°59' E 013°39'1211.6
2016-May-06 19:33N 55°03' E 013°58'1111.1
2016-May-06 18:33N 55°10' E 014°13'1211.9
2016-May-06 17:33N 55°19' E 014°26'1111.4
2016-May-06 16:33N 55°28' E 014°40'1111.4
2016-May-06 15:33N 55°33' E 014°57'1111.4
2016-May-06 14:33N 55°38' E 015°15'1211.5
2016-May-06 13:33N 55°41' E 015°35'1111.4
2016-May-06 12:33N 55°44' E 015°55'1111.3
2016-May-06 11:33N 55°47' E 016°14'1211.6
2016-May-06 10:32N 55°50' E 016°35'1511.5
2016-May-06 09:12N 55°53' E 017°01'812.1
2016-May-06 08:33N 55°55' E 017°15'1211.9
2016-May-06 07:33N 55°58' E 017°36'1211.8
2016-May-06 06:33N 56°04' E 017°54'1211.9
2016-May-06 05:33N 56°10' E 018°12'22211.7
2016-May-05 10:34N 59°17' E 021°58'1211.8
2016-May-05 09:33N 59°25' E 022°16'1211.4
2016-May-05 08:32N 59°31' E 022°35'1211.9
2016-May-05 07:33N 59°34' E 022°57'1212.0
2016-May-05 06:33N 59°38' E 023°20'1212.0
2016-May-05 05:33N 59°41' E 023°43'1212.0
2016-May-05 04:33N 59°45' E 024°05'6211.8
2016-May-04 23:17N 59°57' E 026°07'8 9.7
2016-May-04 22:29N 59°56' E 026°22'1111.7
2016-May-04 21:33N 59°46' E 026°30'1111.5
2016-May-04 20:33N 59°42' E 026°51'1211.7
2016-May-04 19:34N 59°36' E 027°11'1211.6
2016-May-04 18:33N 59°31' E 027°31'5 5.0
2016-May-04 17:33N 59°29' E 027°41'4 4.2
2016-May-04 16:33N 59°25' E 027°44'0 0.2
2016-May-04 15:33N 59°25' E 027°44'0 0.0
2016-May-04 14:30N 59°25' E 027°44'0 0.0
2016-May-04 13:33N 59°25' E 027°44'0 0.0
2016-May-04 12:34N 59°25' E 027°44'0 0.0
2016-May-04 11:34N 59°25' E 027°44'0 0.0
2016-May-04 10:33N 59°25' E 027°44'0 0.0
2016-May-04 09:24N 59°25' E 027°44'0 0.0
2016-May-04 08:27N 59°25' E 027°44'0 0.0
2016-May-04 07:27N 59°25' E 027°44'0 0.0
2016-May-04 06:27N 59°25' E 027°44'0 0.0
2016-May-04 05:30N 59°25' E 027°44'0 0.0
2016-May-04 04:30N 59°25' E 027°44'0 0.0
2016-May-04 03:27N 59°25' E 027°44'0 0.0
2016-May-04 02:33N 59°25' E 027°44'0 0.0
2016-May-04 01:33N 59°25' E 027°44'0 0.0
2016-May-04 00:33N 59°25' E 027°44'0 0.0
2016-May-03 23:33N 59°25' E 027°44'0 0.0
2016-May-03 22:33N 59°25' E 027°44'0 0.0
2016-May-03 21:33N 59°25' E 027°44'0 0.0
2016-May-03 20:33N 59°25' E 027°44'0 0.0
2016-May-03 19:24N 59°25' E 027°44'0 0.0
2016-May-03 18:24N 59°25' E 027°44'0 0.0
2016-May-03 17:27N 59°25' E 027°44'0 0.0
2016-May-03 16:12N 59°25' E 027°44'0 0.0
2016-May-03 15:27N 59°25' E 027°44'0 0.0
2016-May-03 14:09N 59°25' E 027°44'0 0.0
2016-May-03 13:30N 59°25' E 027°44'0 0.0
2016-May-03 12:15N 59°25' E 027°44'0 0.0
2016-May-03 11:30N 59°25' E 027°44'0 0.0
2016-May-03 10:33N 59°25' E 027°44'0 0.0
2016-May-03 09:30N 59°25' E 027°44'0 0.0
2016-May-03 08:33N 59°25' E 027°44'0 0.0
2016-May-03 07:21N 59°25' E 027°44'0 0.0
2016-May-03 06:33N 59°25' E 027°44'0 0.0
2016-May-03 05:33N 59°25' E 027°44'0 0.0
2016-May-03 04:24N 59°25' E 027°44'0 0.0
2016-May-03 03:27N 59°25' E 027°44'0 0.0
2016-May-03 02:27N 59°25' E 027°44'0 0.0
2016-May-03 01:24N 59°25' E 027°44'0 0.0
2016-May-03 00:27N 59°25' E 027°44'0 0.0
2016-May-02 23:30N 59°25' E 027°44'0 0.0
2016-May-02 22:30N 59°25' E 027°44'0 0.0
2016-May-02 21:30N 59°25' E 027°44'0 0.0
2016-May-02 20:33N 59°25' E 027°44'0 0.0
2016-May-02 19:33N 59°25' E 027°44'0 0.0
2016-May-02 18:33N 59°25' E 027°44'0 0.0
2016-May-02 17:33N 59°25' E 027°44'0 0.0
2016-May-02 16:33N 59°25' E 027°44'0 0.0
2016-May-02 15:33N 59°25' E 027°44'0 0.0
2016-May-02 14:24N 59°25' E 027°44'0 0.0
2016-May-02 13:33N 59°25' E 027°44'0 0.0
2016-May-02 12:24N 59°25' E 027°44'0 0.0
2016-May-02 11:27N 59°25' E 027°44'0 0.0
2016-May-02 10:27N 59°25' E 027°44'0 0.0
2016-May-02 09:27N 59°25' E 027°44'0 0.0
2016-May-02 08:30N 59°25' E 027°44'0 0.0
2016-May-02 07:30N 59°25' E 027°44'0 0.0
2016-May-02 06:30N 59°25' E 027°44'0 0.0
2016-May-02 05:18N 59°25' E 027°44'0 0.5
2016-May-02 04:33N 59°25' E 027°44'5 5.3
2016-May-02 03:33N 59°30' E 027°37'2 1.9
2016-May-02 02:33N 59°30' E 027°34'6 6.2
2016-May-02 01:33N 59°32' E 027°22'7 6.8
2016-May-02 00:33N 59°36' E 027°11'8 7.0
2016-May-01 23:23N 59°41' E 026°57'910.6
2016-May-01 22:33N 59°44' E 026°41'1110.9
2016-May-01 21:33N 59°52' E 026°28'1312.5
2016-May-01 20:33N 59°53' E 026°03'1312.6
2016-May-01 19:33N 59°51' E 025°38'5112.7
2016-May-01 15:33N 59°39' E 023°60'1312.9
2016-May-01 14:33N 59°35' E 023°36'1312.5
2016-May-01 13:33N 59°31' E 023°12'1212.4
2016-May-01 12:33N 59°27' E 022°49'  
Track history (hours):
 
Tides and Currents Weather Stations Pressure Air Temp Water Temp Dewpoint Dewpoint Depression Visibility Wind Speed Wind Dir Waves Ship Positions

Podhale (bahama Islands)

Last reported at 2016-May-11 11:27 UTC. Time now 2016-May-29 01:59 UTC.
Position N 48°53' W 005°48'.
Warning: this ship's position is 17 days out of date.

Length 190 m; beam 24 m.

Type: Cargo ship. MMSI: 311831000.

Date/timePositionNaut miles runAvg speedWind from/ knotsBaromVisibWave heightAir tempDewpointWater temp
2016-May-11 11:27N 48°53' W 005°48'8 7.8
2016-May-11 10:24N 48°57' W 005°38'9 6.9
2016-May-11 09:05N 49°02' W 005°27'3 6.2
2016-May-11 08:33N 49°04' W 005°22'6 5.8
2016-May-11 07:33N 49°07' W 005°15'5 4.5
2016-May-11 06:33N 49°09' W 005°09'8 7.3
2016-May-11 05:30N 49°13' W 004°58'4312.6
2016-May-11 02:05N 49°35' W 004°01'1013.3
2016-May-11 01:22N 49°40' W 003°49'1112.7
2016-May-11 00:30N 49°45' W 003°34'1111.6
2016-May-10 23:33N 49°51' W 003°19'1110.6
2016-May-10 22:34N 49°56' W 003°05'1010.0
2016-May-10 21:33N 50°00' W 002°51'9313.3
2016-May-10 14:33N 50°26' W 000°31'1212.2
2016-May-10 13:33N 50°28' W 000°12'1111.1
2016-May-10 12:33N 50°32' E 000°04'1010.0
2016-May-10 11:33N 50°35' E 000°19'12 9.9
2016-May-10 10:18N 50°39' E 000°37'2212.7
2016-May-10 08:34N 50°52' E 001°05'1414.1
2016-May-10 07:34N 51°01' E 001°23'1312.9
2016-May-10 06:33N 51°10' E 001°38'1111.1
2016-May-10 05:33N 51°18' E 001°50'1010.2
2016-May-10 04:33N 51°27' E 001°59'10 9.8
2016-May-10 03:33N 51°34' E 002°09'10 9.9
2016-May-10 02:31N 51°42' E 002°20'14411.8
2016-May-09 14:19N 53°52' E 004°01'1012.5
2016-May-09 13:32N 53°58' E 004°15'1211.9
2016-May-09 12:33N 54°07' E 004°29'1211.8
2016-May-09 11:33N 54°16' E 004°40'1211.5
2016-May-09 10:33N 54°26' E 004°51'9411.7
2016-May-09 02:29N 55°43' E 006°24'1211.9
2016-May-09 01:30N 55°53' E 006°37'16011.5
2016-May-08 11:33N 57°48' E 009°59'1212.0
2016-May-08 10:32N 57°48' E 010°22'1212.0
2016-May-08 09:34N 57°48' E 010°44'1211.5
2016-May-08 08:33N 57°41' E 011°00'1212.2
2016-May-08 07:33N 57°32' E 011°17'1111.4
2016-May-08 06:33N 57°23' E 011°29'1211.8
2016-May-08 05:33N 57°12' E 011°36'1211.9
2016-May-08 04:33N 57°00' E 011°44'1211.8
2016-May-08 03:33N 56°49' E 011°51'1110.9
2016-May-08 02:33N 56°39' E 011°47'1211.6
2016-May-08 01:33N 56°29' E 011°36'1211.9
2016-May-08 00:33N 56°18' E 011°25'1211.8
2016-May-07 23:33N 56°09' E 011°13'1212.0
2016-May-07 22:30N 55°58' E 011°01'1212.0
2016-May-07 21:33N 55°49' E 010°49'1212.4
2016-May-07 20:33N 55°37' E 010°48'1312.2
2016-May-07 19:31N 55°25' E 010°59'1111.1
2016-May-07 18:33N 55°15' E 011°02'1 0.5
2016-May-07 17:34N 55°14' E 011°03'0 0.0
2016-May-07 16:24N 55°14' E 011°03'0 0.0
2016-May-07 15:33N 55°14' E 011°03'0 0.0
2016-May-07 14:30N 55°14' E 011°03'0 0.0
2016-May-07 13:33N 55°14' E 011°03'0 0.0
2016-May-07 12:33N 55°14' E 011°03'0 0.0
2016-May-07 11:33N 55°14' E 011°03'2 2.2
2016-May-07 10:33N 55°17' E 011°02'7 7.0
2016-May-07 09:33N 55°10' E 011°00'1212.2
2016-May-07 08:34N 54°58' E 010°56'10 9.5
2016-May-07 07:33N 54°49' E 010°50'9 9.2
2016-May-07 06:34N 54°40' E 010°49'8 8.4
2016-May-07 05:34N 54°36' E 011°03'1211.7
2016-May-07 04:34N 54°33' E 011°22'1211.8
2016-May-07 03:33N 54°28' E 011°41'1211.9
2016-May-07 02:33N 54°27' E 012°01'9 9.0
2016-May-07 01:33N 54°32' E 012°14'1111.1
2016-May-07 00:33N 54°40' E 012°26'1211.6
2016-May-06 23:34N 54°46' E 012°43'1111.4
2016-May-06 22:33N 54°52' E 013°01'1111.4
2016-May-06 21:33N 54°55' E 013°19'1211.7
2016-May-06 20:34N 54°59' E 013°39'1211.6
2016-May-06 19:33N 55°03' E 013°58'1111.1
2016-May-06 18:33N 55°10' E 014°13'1211.9
2016-May-06 17:33N 55°19' E 014°26'1111.4
2016-May-06 16:33N 55°28' E 014°40'1111.4
2016-May-06 15:33N 55°33' E 014°57'1111.4
2016-May-06 14:33N 55°38' E 015°15'1211.5
2016-May-06 13:33N 55°41' E 015°35'1111.4
2016-May-06 12:33N 55°44' E 015°55'1111.3
2016-May-06 11:33N 55°47' E 016°14'1211.6
2016-May-06 10:32N 55°50' E 016°35'1511.5
2016-May-06 09:12N 55°53' E 017°01'812.1
2016-May-06 08:33N 55°55' E 017°15'1211.9
2016-May-06 07:33N 55°58' E 017°36'1211.8
2016-May-06 06:33N 56°04' E 017°54'1211.9
2016-May-06 05:33N 56°10' E 018°12'22211.7
2016-May-05 10:34N 59°17' E 021°58'1211.8
2016-May-05 09:33N 59°25' E 022°16'1211.4
2016-May-05 08:32N 59°31' E 022°35'1211.9
2016-May-05 07:33N 59°34' E 022°57'1212.0
2016-May-05 06:33N 59°38' E 023°20'1212.0
2016-May-05 05:33N 59°41' E 023°43'1212.0
2016-May-05 04:33N 59°45' E 024°05'6211.8
2016-May-04 23:17N 59°57' E 026°07'8 9.7
2016-May-04 22:29N 59°56' E 026°22'1111.7
2016-May-04 21:33N 59°46' E 026°30'1111.5
2016-May-04 20:33N 59°42' E 026°51'1211.7
2016-May-04 19:34N 59°36' E 027°11'1211.6
2016-May-04 18:33N 59°31' E 027°31'5 5.0
2016-May-04 17:33N 59°29' E 027°41'4 4.2
2016-May-04 16:33N 59°25' E 027°44'0 0.2
2016-May-04 15:33N 59°25' E 027°44'0 0.0
2016-May-04 14:30N 59°25' E 027°44'0 0.0
2016-May-04 13:33N 59°25' E 027°44'0 0.0
2016-May-04 12:34N 59°25' E 027°44'0 0.0
2016-May-04 11:34N 59°25' E 027°44'0 0.0
2016-May-04 10:33N 59°25' E 027°44'0 0.0
2016-May-04 09:24N 59°25' E 027°44'0 0.0
2016-May-04 08:27N 59°25' E 027°44'0 0.0
2016-May-04 07:27N 59°25' E 027°44'0 0.0
2016-May-04 06:27N 59°25' E 027°44'0 0.0
2016-May-04 05:30N 59°25' E 027°44'0 0.0
2016-May-04 04:30N 59°25' E 027°44'0 0.0
2016-May-04 03:27N 59°25' E 027°44'0 0.0
2016-May-04 02:33N 59°25' E 027°44'0 0.0
2016-May-04 01:33N 59°25' E 027°44'0 0.0
2016-May-04 00:33N 59°25' E 027°44'0 0.0
2016-May-03 23:33N 59°25' E 027°44'0 0.0
2016-May-03 22:33N 59°25' E 027°44'0 0.0
2016-May-03 21:33N 59°25' E 027°44'0 0.0
2016-May-03 20:33N 59°25' E 027°44'0 0.0
2016-May-03 19:24N 59°25' E 027°44'0 0.0
2016-May-03 18:24N 59°25' E 027°44'0 0.0
2016-May-03 17:27N 59°25' E 027°44'0 0.0
2016-May-03 16:12N 59°25' E 027°44'0 0.0
2016-May-03 15:27N 59°25' E 027°44'0 0.0
2016-May-03 14:09N 59°25' E 027°44'0 0.0
2016-May-03 13:30N 59°25' E 027°44'0 0.0
2016-May-03 12:15N 59°25' E 027°44'0 0.0
2016-May-03 11:30N 59°25' E 027°44'0 0.0
2016-May-03 10:33N 59°25' E 027°44'0 0.0
2016-May-03 09:30N 59°25' E 027°44'0 0.0
2016-May-03 08:33N 59°25' E 027°44'0 0.0
2016-May-03 07:21N 59°25' E 027°44'0 0.0
2016-May-03 06:33N 59°25' E 027°44'0 0.0
2016-May-03 05:33N 59°25' E 027°44'0 0.0
2016-May-03 04:24N 59°25' E 027°44'0 0.0
2016-May-03 03:27N 59°25' E 027°44'0 0.0
2016-May-03 02:27N 59°25' E 027°44'0 0.0
2016-May-03 01:24N 59°25' E 027°44'0 0.0
2016-May-03 00:27N 59°25' E 027°44'0 0.0
2016-May-02 23:30N 59°25' E 027°44'0 0.0
2016-May-02 22:30N 59°25' E 027°44'0 0.0
2016-May-02 21:30N 59°25' E 027°44'0 0.0
2016-May-02 20:33N 59°25' E 027°44'0 0.0
2016-May-02 19:33N 59°25' E 027°44'0 0.0
2016-May-02 18:33N 59°25' E 027°44'0 0.0
2016-May-02 17:33N 59°25' E 027°44'0 0.0
2016-May-02 16:33N 59°25' E 027°44'0 0.0
2016-May-02 15:33N 59°25' E 027°44'0 0.0
2016-May-02 14:24N 59°25' E 027°44'0 0.0
2016-May-02 13:33N 59°25' E 027°44'0 0.0
2016-May-02 12:24N 59°25' E 027°44'0 0.0
2016-May-02 11:27N 59°25' E 027°44'0 0.0
2016-May-02 10:27N 59°25' E 027°44'0 0.0
2016-May-02 09:27N 59°25' E 027°44'0 0.0
2016-May-02 08:30N 59°25' E 027°44'0 0.0
2016-May-02 07:30N 59°25' E 027°44'0 0.0
2016-May-02 06:30N 59°25' E 027°44'0 0.0
2016-May-02 05:18N 59°25' E 027°44'0 0.5
2016-May-02 04:33N 59°25' E 027°44'5 5.3
2016-May-02 03:33N 59°30' E 027°37'2 1.9
2016-May-02 02:33N 59°30' E 027°34'6 6.2
2016-May-02 01:33N 59°32' E 027°22'7 6.8
2016-May-02 00:33N 59°36' E 027°11'8 7.0
2016-May-01 23:23N 59°41' E 026°57'910.6
2016-May-01 22:33N 59°44' E 026°41'1110.9
2016-May-01 21:33N 59°52' E 026°28'1312.5
2016-May-01 20:33N 59°53' E 026°03'1312.6
2016-May-01 19:33N 59°51' E 025°38'5112.7
2016-May-01 15:33N 59°39' E 023°60'1312.9
2016-May-01 14:33N 59°35' E 023°36'1312.5
2016-May-01 13:33N 59°31' E 023°12'1212.4
2016-May-01 12:33N 59°27' E 022°49'  

Dump ship's entire track history